Hauptseite
METAR-TAF:

METAR-TAF

Flughäfen :

Flughafen Rimini

Rimini, Italien

Breite: 44-02N, Länge: 012-37E, Höhe: 12 m

Beobachtung

Neuester Wetterbericht von vor 19 Minuten, um 13:20 UTC
Wind 6 kt aus West
Temperatur 8°C
Luftfeuchtigkeit 71%
Luftdruck 1027 hPa
Sichtweite 10 km oder mehr
keine Wolken unter 1500 m und keine Kumulonimbus oder Gewitterwolken

METAR: LIPR 181320Z 28006KT CAVOK 08/03 Q1027

Zeit: 14:39 (13:39 UTC)

Prognose

Neuester Wetterbericht von vor 2 Stunden und 39 Minuten, um 11:00 UTC
Gültige Prognose vom 18 um 12 UTC bis 18 um 21 UTC
Wind 10 kt aus West/Nordwest
Sichtweite 10 km oder mehr
Leicht bewölkt in der Höhe von 3000 ft

TAF: LIPR 181100Z 1812/1821 29010KT 9999 FEW030

Wetterbeobachtungen und Prognosen von mehr als 4000 Flughäfen (METAR und TAF Bericht).

Die verfügbaren Stationen werden durch gelbe und rote Markierungen auf der Karte dargestellt.

Führen Sie die Maus auf sie, um den Namen der Station zu sehen.

Darauf klicken, um die Beobachtung von Wetterbeobachtungen und Prognosen zu sehen.

Um die Karte zu ändern : klicken Sie auf den grünen Tasten mit einem schwarzen Kreuz Zum Vergrößern, auf den grünen Button mit einem Gedankenstrich zu verkleinern, oder auf die grünen Pfeile für benachbarte Karten.


METAR-TAF: